LTFE/BJV METAR and TAF weather

Enter ICAO airport designator
Station Type Date Time Source
LTFE METAR 2019/12/13 03:20 UTC NOAA

LTFE 130320Z 06003KT 020V100 7000 -SHRA SCT030 BKN090 10/09 Q1005 RESHRA NOSIG


Station Type Date Time Source
LTFE Decoded METAR 2019/12/13 03:20 UTC NOAA

Bodrum Milas Airport, Turkey (LTFE) 37-14-53N 027-40-55E
Dec 12, 2019 - 10:20 PM EST / 2019.12.13 0320 UTC
Wind: from the ENE (060 degrees) at 3 MPH (3 KT) (direction variable):0
Visibility: 4 mile(s):0
Sky conditions: mostly cloudy
Weather: light rain showers
Temperature: 50 F (10 C)
Dew Point: 48 F (9 C)
Relative Humidity: 93%
Pressure (altimeter): 29.68 in. Hg (1005 hPa)
ob: LTFE 130320Z 06003KT 020V100 7000 -SHRA SCT030 BKN090 10/09 Q1005 RESHRA NOSIG
cycle: 3

Station Type Date Time Source
LTFE TAF 2019/12/13 02:22 UTC NOAA

TAF
AMD LTFE 130215Z 1302/1324 VRB02KT 8000 -SHRA SCT030 BKN090
BECMG 1310/1312 14012KT PROB40
TEMPO 1311/1313 -TSRA FEW020CB BKN030
BECMG 1314/1317 08008KT PROB40
TEMPO 1318/1322 -TSRA FEW020CB BKN030

Example: see airport list